Dobrota — J8UW4 — position and weather

sailwx.info

Track history (hours):
 
Tides and Currents Weather Stations Pressure Air Temp Water Temp Dewpoint Dewpoint Depression Visibility Wind Speed Wind Dir Waves Ship Positions

Dobrota

Last reported at 2014-Oct-26 11:33 UTC. Time now 2014-Oct-31 04:13 UTC.
Position N 41°21' E 029°14'.

Length 185 m; draft 5.9 m.

Type: Cargo ship. MMSI: 376409000.

Date/timePositionNaut miles runAvg speedWind from/ knotsBaromVisibWave heightAir tempDewpointWater temp
2014-Oct-26 11:33N 41°21' E 029°14'22 8.9
2014-Oct-26 09:06N 41°02' E 028°60'5 7.4
2014-Oct-26 08:28N 40°57' E 028°59'7 8.0
2014-Oct-26 07:33N 40°51' E 028°53'6 5.8
2014-Oct-26 06:28N 40°46' E 028°48'1 0.6
2014-Oct-26 05:31N 40°46' E 028°47'0 0.1
2014-Oct-26 04:30N 40°46' E 028°47'3 2.8
2014-Oct-26 03:30N 40°49' E 028°49'26510.5
2014-Oct-25 02:12N 37°51' E 024°35'812.3
2014-Oct-25 01:31N 37°43' E 024°31'1212.5
2014-Oct-25 00:33N 37°33' E 024°25'1412.6
2014-Oct-24 23:24N 37°20' E 024°15'2312.3
2014-Oct-24 21:33N 37°02' E 023°59'1212.1
2014-Oct-24 20:33N 36°52' E 023°49'  
Track history (hours):
 
Tides and Currents Weather Stations Pressure Air Temp Water Temp Dewpoint Dewpoint Depression Visibility Wind Speed Wind Dir Waves Ship Positions

Dobrota

Last reported at 2014-Oct-26 11:33 UTC. Time now 2014-Oct-31 04:13 UTC.
Position N 41°21' E 029°14'.

Length 185 m; draft 5.9 m.

Type: Cargo ship. MMSI: 376409000.

Date/timePositionNaut miles runAvg speedWind from/ knotsBaromVisibWave heightAir tempDewpointWater temp
2014-Oct-26 11:33N 41°21' E 029°14'22 8.9
2014-Oct-26 09:06N 41°02' E 028°60'5 7.4
2014-Oct-26 08:28N 40°57' E 028°59'7 8.0
2014-Oct-26 07:33N 40°51' E 028°53'6 5.8
2014-Oct-26 06:28N 40°46' E 028°48'1 0.6
2014-Oct-26 05:31N 40°46' E 028°47'0 0.1
2014-Oct-26 04:30N 40°46' E 028°47'3 2.8
2014-Oct-26 03:30N 40°49' E 028°49'26510.5
2014-Oct-25 02:12N 37°51' E 024°35'812.3
2014-Oct-25 01:31N 37°43' E 024°31'1212.5
2014-Oct-25 00:33N 37°33' E 024°25'1412.6
2014-Oct-24 23:24N 37°20' E 024°15'2312.3
2014-Oct-24 21:33N 37°02' E 023°59'1212.1
2014-Oct-24 20:33N 36°52' E 023°49'  

Dump ship's entire track history